createdAt,value
2018-06-18T00:01:10.003Z,5.07
2018-06-18T00:03:39.078Z,5.23
2018-06-18T00:06:08.163Z,4.90
2018-06-18T00:08:37.274Z,4.83
2018-06-18T00:11:06.339Z,5.60
2018-06-18T00:13:35.414Z,5.20
2018-06-18T00:16:04.524Z,5.20
2018-06-18T00:18:33.603Z,5.10
2018-06-18T00:21:02.686Z,4.80
2018-06-18T00:23:31.804Z,5.60
2018-06-18T00:26:00.923Z,5.73
2018-06-18T00:28:30.026Z,6.00
2018-06-18T00:31:00.532Z,5.60
2018-06-18T00:33:29.704Z,5.20
2018-06-18T00:35:58.963Z,4.70
2018-06-18T00:38:28.107Z,5.20
2018-06-18T00:40:57.266Z,5.33
2018-06-18T00:43:26.414Z,5.47
2018-06-18T00:45:55.934Z,6.17
2018-06-18T00:48:25.003Z,4.80
2018-06-18T00:50:55.326Z,5.53
2018-06-18T00:53:24.678Z,5.23
2018-06-18T00:56:05.550Z,5.00
2018-06-18T00:58:34.658Z,5.00
2018-06-18T01:01:03.727Z,5.30
2018-06-18T01:03:32.819Z,5.20
2018-06-18T01:06:02.090Z,5.40
2018-06-18T01:08:31.176Z,5.10
2018-06-18T01:11:00.586Z,4.67
2018-06-18T01:13:29.665Z,5.13
2018-06-18T01:15:59.011Z,4.90
2018-06-18T01:18:28.447Z,4.80
2018-06-18T01:20:57.548Z,4.43
2018-06-18T01:23:48.080Z,6.03
2018-06-18T01:26:17.192Z,5.97
2018-06-18T01:28:53.218Z,5.20
2018-06-18T01:31:22.391Z,5.00
2018-06-18T01:33:54.294Z,4.63
2018-06-18T01:36:23.435Z,5.13
2018-06-18T01:38:52.603Z,4.70
2018-06-18T01:41:21.802Z,5.47
2018-06-18T01:43:50.987Z,4.83
2018-06-18T01:46:20.151Z,5.60
2018-06-18T01:48:49.243Z,4.90
2018-06-18T01:51:18.307Z,5.30
2018-06-18T01:53:47.383Z,5.47
2018-06-18T01:56:16.677Z,4.70
2018-06-18T01:58:45.773Z,4.70
2018-06-18T02:01:16.823Z,5.33
2018-06-18T02:03:47.461Z,5.50
2018-06-18T02:06:19.399Z,5.00
2018-06-18T02:08:49.908Z,4.47
2018-06-18T02:11:19.930Z,5.50
2018-06-18T02:13:49.646Z,6.67
2018-06-18T02:16:19.483Z,5.10
2018-06-18T02:18:50.573Z,5.30
2018-06-18T02:21:20.115Z,4.53
2018-06-18T02:23:50.904Z,5.50
2018-06-18T02:26:20.638Z,5.33
2018-06-18T02:30:57.982Z,7.07
2018-06-18T02:33:33.578Z,5.93
2018-06-18T02:36:08.176Z,4.87
2018-06-18T02:38:43.204Z,5.20
2018-06-18T02:41:12.847Z,4.87
2018-06-18T02:43:42.683Z,5.77
2018-06-18T02:46:11.839Z,5.03
2018-06-18T02:48:41.317Z,5.80
2018-06-18T02:51:10.534Z,5.10
2018-06-18T02:53:39.690Z,5.70
2018-06-18T02:56:08.889Z,4.70
2018-06-18T02:58:39.623Z,4.93
2018-06-18T03:01:08.814Z,5.30
2018-06-18T03:03:37.998Z,4.50
2018-06-18T03:06:07.116Z,5.43
2018-06-18T03:08:36.260Z,6.20
2018-06-18T03:11:05.458Z,5.17
2018-06-18T03:13:34.572Z,4.90
2018-06-18T03:16:04.127Z,5.53
2018-06-18T03:18:38.539Z,5.70
2018-06-18T03:21:13.306Z,5.13
2018-06-18T03:23:47.663Z,4.77
2018-06-18T03:26:21.901Z,5.60
2018-06-18T03:28:56.198Z,5.10
2018-06-18T03:31:25.303Z,5.90
2018-06-18T03:33:54.386Z,5.80
2018-06-18T03:36:23.510Z,4.30
2018-06-18T03:38:53.088Z,5.03
2018-06-18T03:41:22.127Z,4.77
2018-06-18T03:43:58.585Z,5.00
2018-06-18T03:46:27.699Z,5.53
2018-06-18T03:48:56.778Z,5.07
2018-06-18T03:51:25.879Z,4.93
2018-06-18T03:53:55.007Z,5.57
2018-06-18T03:56:24.077Z,4.77
2018-06-18T03:58:53.763Z,4.50
2018-06-18T04:01:44.139Z,4.43
2018-06-18T04:04:19.309Z,5.03
2018-06-18T04:06:53.707Z,6.00
2018-06-18T04:09:28.019Z,5.50
2018-06-18T04:12:02.380Z,5.40
2018-06-18T04:14:31.488Z,4.97
2018-06-18T04:17:00.665Z,5.80
2018-06-18T04:19:29.851Z,5.90
2018-06-18T04:21:59.270Z,5.20
2018-06-18T04:24:28.349Z,5.13
2018-06-18T04:26:58.150Z,5.20
2018-06-18T04:29:27.235Z,5.00
2018-06-18T04:31:56.336Z,4.53
2018-06-18T04:34:46.374Z,4.17
2018-06-18T04:37:15.955Z,4.70
2018-06-18T04:39:45.086Z,4.67
2018-06-18T04:42:19.580Z,4.70
2018-06-18T04:44:53.996Z,4.30
2018-06-18T04:47:28.319Z,4.77
2018-06-18T04:50:02.591Z,4.53
2018-06-18T04:52:31.875Z,4.80
2018-06-18T04:55:01.755Z,4.00
2018-06-18T04:57:31.033Z,5.13
2018-06-18T05:00:35.078Z,4.50
2018-06-18T05:03:04.183Z,4.50
2018-06-18T05:05:33.262Z,4.37
2018-06-18T05:08:51.875Z,4.40
2018-06-18T05:11:20.993Z,4.10
2018-06-18T05:13:50.070Z,4.30
2018-06-18T05:16:19.429Z,4.03
2018-06-18T05:18:48.768Z,5.10
2018-06-18T05:21:18.143Z,4.53
2018-06-18T05:23:47.239Z,3.80
2018-06-18T05:26:16.872Z,4.47
2018-06-18T05:28:46.104Z,5.13
2018-06-18T05:31:15.222Z,3.83
2018-06-18T05:33:44.354Z,3.73
2018-06-18T05:36:14.272Z,4.10
2018-06-18T05:38:43.366Z,3.70
2018-06-18T05:41:12.783Z,3.40
2018-06-18T05:43:41.924Z,4.70
2018-06-18T05:46:11.121Z,3.50
2018-06-18T05:48:40.230Z,3.47
2018-06-18T05:51:09.556Z,4.40
2018-06-18T05:53:38.627Z,3.93
2018-06-18T05:56:07.888Z,4.50
2018-06-18T05:58:37.878Z,3.83
2018-06-18T06:01:07.507Z,3.63
2018-06-18T06:03:36.598Z,3.40
2018-06-18T06:06:05.793Z,3.57
2018-06-18T06:08:34.578Z,3.67
2018-06-18T06:11:03.687Z,4.07
2018-06-18T06:13:32.789Z,2.90
2018-06-18T06:16:01.915Z,2.80
2018-06-18T06:18:30.987Z,3.20
2018-06-18T06:21:03.331Z,3.03
2018-06-18T06:23:32.434Z,3.57
2018-06-18T06:26:01.791Z,3.67
2018-06-18T06:28:30.927Z,3.53
2018-06-18T06:31:00.511Z,3.17
2018-06-18T06:33:29.635Z,3.20
2018-06-18T06:36:00.631Z,4.03
2018-06-18T06:38:29.795Z,3.63
2018-06-18T06:40:58.938Z,3.20
2018-06-18T06:43:28.044Z,3.27
2018-06-18T06:45:57.815Z,3.17
2018-06-18T06:48:26.925Z,3.97
2018-06-18T06:50:56.091Z,3.53
2018-06-18T06:53:25.242Z,3.30
2018-06-18T06:55:54.389Z,3.37
2018-06-18T06:58:23.538Z,3.47
2018-06-18T07:00:52.851Z,3.97
2018-06-18T07:03:22.010Z,3.67
2018-06-18T07:05:51.307Z,3.07
2018-06-18T07:08:21.258Z,4.10
2018-06-18T07:10:50.426Z,3.70
2018-06-18T07:13:21.249Z,3.27
2018-06-18T07:15:50.287Z,3.03
2018-06-18T07:18:19.366Z,4.40
2018-06-18T07:20:48.512Z,4.37
2018-06-18T07:23:17.594Z,4.07
2018-06-18T07:25:46.679Z,3.17
2018-06-18T07:28:15.799Z,3.00
2018-06-18T07:30:44.855Z,3.50
2018-06-18T07:33:13.927Z,3.87
2018-06-18T07:35:43.015Z,3.80
2018-06-18T07:38:12.115Z,3.60
2018-06-18T07:40:41.183Z,3.57
2018-06-18T07:43:10.526Z,4.30
2018-06-18T07:45:39.669Z,3.97
2018-06-18T07:48:09.113Z,3.13
2018-06-18T07:50:38.202Z,3.97
2018-06-18T07:53:07.474Z,3.37
2018-06-18T07:55:36.631Z,4.50
2018-06-18T07:58:06.363Z,4.83
2018-06-18T08:00:35.455Z,3.57
2018-06-18T08:03:04.553Z,4.00
2018-06-18T08:05:33.685Z,4.27
2018-06-18T08:08:02.773Z,4.80
2018-06-18T08:10:31.871Z,4.73
2018-06-18T08:13:01.065Z,4.67
2018-06-18T08:15:30.213Z,3.70
2018-06-18T08:17:59.290Z,3.73
2018-06-18T08:20:28.399Z,3.50
2018-06-18T08:22:57.465Z,4.30
2018-06-18T08:25:26.542Z,3.30
2018-06-18T08:27:55.665Z,3.50
2018-06-18T08:30:24.755Z,4.23
2018-06-18T08:32:53.659Z,4.20
2018-06-18T08:35:22.907Z,4.60
2018-06-18T08:37:52.276Z,4.27
2018-06-18T08:40:22.115Z,4.77
2018-06-18T08:42:52.624Z,3.97
2018-06-18T08:45:21.778Z,4.37
2018-06-18T08:47:50.873Z,4.23
2018-06-18T08:50:25.126Z,4.57
2018-06-18T08:52:59.411Z,4.43
2018-06-18T08:55:33.654Z,4.40
2018-06-18T08:58:08.330Z,5.50
2018-06-18T09:00:42.842Z,3.43
2018-06-18T09:03:11.647Z,3.60
2018-06-18T09:05:43.078Z,4.03
2018-06-18T09:08:12.170Z,4.83
2018-06-18T09:10:41.371Z,3.63
2018-06-18T09:13:10.623Z,4.17
2018-06-18T09:15:40.539Z,4.63
2018-06-18T09:18:10.071Z,3.93
2018-06-18T09:20:39.255Z,3.77
2018-06-18T09:23:10.815Z,3.90
2018-06-18T09:25:46.859Z,2.93
2018-06-18T09:28:16.827Z,4.40
2018-06-18T09:30:46.036Z,4.17
2018-06-18T09:33:15.166Z,3.53
2018-06-18T09:35:44.548Z,3.90
2018-06-18T09:38:13.765Z,4.23
2018-06-18T09:40:42.882Z,3.77
2018-06-18T09:43:12.021Z,3.70
2018-06-18T09:45:41.818Z,4.60
2018-06-18T09:48:10.616Z,4.43
2018-06-18T09:50:44.411Z,4.27
2018-06-18T09:53:18.746Z,4.47
2018-06-18T09:55:52.568Z,3.87
2018-06-18T09:58:27.494Z,4.07
2018-06-18T10:01:17.611Z,4.70
2018-06-18T10:03:46.730Z,4.67
2018-06-18T10:06:15.823Z,4.30
2018-06-18T10:08:45.024Z,4.37
2018-06-18T10:11:14.019Z,4.27
2018-06-18T10:13:43.102Z,4.60
2018-06-18T10:16:12.735Z,4.00
2018-06-18T10:18:41.965Z,4.17
2018-06-18T10:21:11.903Z,4.10
2018-06-18T10:23:41.635Z,4.50
2018-06-18T10:26:10.718Z,4.17
2018-06-18T10:28:39.846Z,3.90
2018-06-18T10:31:08.927Z,4.20
2018-06-18T10:33:43.398Z,5.20
2018-06-18T10:36:17.675Z,4.63
2018-06-18T10:38:52.274Z,4.90
2018-06-18T10:41:26.648Z,4.80
2018-06-18T10:43:55.771Z,4.20
2018-06-18T10:46:24.846Z,4.20
2018-06-18T10:48:53.981Z,4.30
2018-06-18T10:51:23.094Z,4.37
2018-06-18T10:53:52.210Z,4.67
2018-06-18T10:56:21.333Z,3.97
2018-06-18T10:58:50.473Z,4.20
2018-06-18T11:01:26.710Z,3.63
2018-06-18T11:03:55.847Z,3.37
2018-06-18T11:06:30.032Z,3.37
2018-06-18T11:08:59.122Z,3.33
2018-06-18T11:11:28.574Z,3.80
2018-06-18T11:13:58.639Z,4.70
2018-06-18T11:16:28.101Z,4.80
2018-06-18T11:19:02.328Z,3.93
2018-06-18T11:21:36.975Z,4.00
2018-06-18T11:24:11.747Z,4.83
2018-06-18T11:26:47.517Z,4.10
2018-06-18T11:29:16.703Z,4.67
2018-06-18T11:31:45.787Z,4.03
2018-06-18T11:34:14.927Z,3.60
2018-06-18T11:36:44.027Z,3.23
2018-06-18T11:39:13.168Z,4.77
2018-06-18T11:41:42.265Z,3.70
2018-06-18T11:44:11.336Z,3.90
2018-06-18T11:46:40.417Z,2.83
2018-06-18T11:49:10.067Z,3.43
2018-06-18T11:51:39.451Z,3.87
2018-06-18T11:54:08.583Z,3.43
2018-06-18T11:56:37.676Z,3.63
2018-06-18T11:59:12.484Z,3.80
2018-06-18T12:01:47.229Z,4.13
2018-06-18T12:04:21.515Z,4.90
2018-06-18T12:06:55.865Z,4.27
2018-06-18T12:09:31.530Z,4.27
2018-06-18T12:12:00.599Z,4.30
2018-06-18T12:14:29.715Z,4.10
2018-06-18T12:16:58.794Z,4.13
2018-06-18T12:19:27.884Z,3.73
2018-06-18T12:21:57.008Z,4.20
2018-06-18T12:24:26.090Z,4.60
2018-06-18T12:26:55.171Z,4.33
2018-06-18T12:29:24.281Z,4.50
2018-06-18T12:31:53.363Z,3.90
2018-06-18T12:34:22.446Z,3.87
2018-06-18T12:36:51.550Z,3.40
2018-06-18T12:39:20.630Z,3.57
2018-06-18T12:41:58.543Z,4.17
2018-06-18T12:44:31.703Z,4.10
2018-06-18T12:47:06.214Z,4.07
2018-06-18T12:49:52.450Z,3.70
2018-06-18T12:52:27.291Z,4.23
2018-06-18T12:55:02.071Z,3.30
2018-06-18T12:57:31.195Z,4.83
2018-06-18T13:00:00.494Z,4.70
2018-06-18T13:02:36.523Z,3.90
2018-06-18T13:05:06.228Z,4.77
2018-06-18T13:07:35.329Z,4.33
2018-06-18T13:10:04.638Z,4.40
2018-06-18T13:12:34.016Z,3.90
2018-06-18T13:15:03.148Z,4.40
2018-06-18T13:17:32.843Z,4.00
2018-06-18T13:20:02.330Z,3.80
2018-06-18T13:22:31.479Z,4.30
2018-06-18T13:25:00.619Z,4.53
2018-06-18T13:27:35.036Z,4.13
2018-06-18T13:30:05.559Z,3.80
2018-06-18T13:32:34.712Z,4.40
2018-06-18T13:35:03.804Z,4.00
2018-06-18T13:37:38.222Z,4.20
2018-06-18T13:40:12.487Z,3.97
2018-06-18T13:42:46.931Z,3.60
2018-06-18T13:45:21.208Z,3.50
2018-06-18T13:47:55.670Z,3.90
2018-06-18T13:50:24.779Z,3.30
2018-06-18T13:52:53.939Z,3.73
2018-06-18T13:55:23.080Z,3.40
2018-06-18T13:57:52.198Z,4.23
2018-06-18T14:00:21.530Z,3.77
2018-06-18T14:02:50.842Z,4.50
2018-06-18T14:05:19.937Z,5.23
2018-06-18T14:07:49.175Z,4.97
2018-06-18T14:10:19.707Z,3.90
2018-06-18T14:12:48.803Z,3.97
2018-06-18T14:15:20.218Z,4.03
2018-06-18T14:17:49.523Z,3.80
2018-06-18T14:20:23.180Z,3.90
2018-06-18T14:22:52.906Z,4.40
2018-06-18T14:25:23.978Z,4.17
2018-06-18T14:27:53.219Z,4.10
2018-06-18T14:30:27.693Z,4.50
2018-06-18T14:33:02.141Z,3.87
2018-06-18T14:35:36.498Z,4.60
2018-06-18T14:38:10.883Z,4.10
2018-06-18T14:40:39.984Z,4.50
2018-06-18T14:43:09.982Z,4.00
2018-06-18T14:45:39.642Z,3.73
2018-06-18T14:48:09.022Z,5.20
2018-06-18T14:50:38.201Z,4.00
2018-06-18T14:53:07.283Z,4.50
2018-06-18T14:55:37.195Z,4.20
2018-06-18T14:58:07.027Z,4.67
2018-06-18T15:00:37.299Z,4.87
2018-06-18T15:03:07.176Z,3.80
2018-06-18T15:05:41.364Z,4.43
2018-06-18T15:08:10.562Z,4.80
2018-06-18T15:10:45.165Z,4.30
2018-06-18T15:13:15.463Z,4.20
2018-06-18T15:15:49.807Z,4.57
2018-06-18T15:18:18.980Z,3.87
2018-06-18T15:20:48.051Z,4.40
2018-06-18T15:23:17.127Z,5.27
2018-06-18T15:25:49.967Z,3.80
2018-06-18T15:28:19.055Z,4.63
2018-06-18T15:30:48.184Z,3.80
2018-06-18T15:33:17.301Z,4.00
2018-06-18T15:35:46.458Z,4.13
2018-06-18T15:38:15.620Z,4.00
2018-06-18T15:40:44.682Z,3.80
2018-06-18T15:43:14.274Z,4.33
2018-06-18T15:45:43.381Z,4.30
2018-06-18T15:48:12.487Z,4.20
2018-06-18T15:50:41.735Z,4.20
2018-06-18T15:53:10.855Z,3.90
2018-06-18T15:55:39.938Z,4.50
2018-06-18T15:58:08.902Z,4.30
2018-06-18T16:00:38.112Z,4.20
2018-06-18T16:03:07.356Z,4.10
2018-06-18T16:05:36.852Z,4.90
2018-06-18T16:08:06.390Z,4.17
2018-06-18T16:10:35.530Z,4.47
2018-06-18T16:13:04.406Z,4.20
2018-06-18T16:15:33.490Z,4.33
2018-06-18T16:18:02.775Z,4.43
2018-06-18T16:20:31.941Z,3.83
2018-06-18T16:23:01.749Z,4.00
2018-06-18T16:25:31.279Z,4.17
2018-06-18T16:28:00.419Z,4.60
2018-06-18T16:30:29.763Z,5.10
2018-06-18T16:32:58.890Z,4.50
2018-06-18T16:35:28.033Z,4.10
2018-06-18T16:37:57.152Z,4.23
2018-06-18T16:40:26.300Z,4.10
2018-06-18T16:42:56.139Z,4.20
2018-06-18T16:45:25.303Z,4.17
2018-06-18T16:47:54.431Z,3.83
2018-06-18T16:50:23.966Z,4.27
2018-06-18T16:52:53.162Z,4.03
2018-06-18T16:55:22.230Z,4.10
2018-06-18T16:57:51.347Z,4.27
2018-06-18T17:00:20.449Z,4.50
2018-06-18T17:02:50.159Z,4.20
2018-06-18T17:05:42.402Z,4.10
2018-06-18T17:08:12.283Z,5.10
2018-06-18T17:10:41.426Z,3.73
2018-06-18T17:13:10.872Z,5.00
2018-06-18T17:15:40.037Z,4.63
2018-06-18T17:18:09.651Z,4.27
2018-06-18T17:20:38.892Z,4.43
2018-06-18T17:23:08.493Z,4.17
2018-06-18T17:25:37.815Z,4.10
2018-06-18T17:28:06.906Z,3.90
2018-06-18T17:30:36.059Z,4.03
2018-06-18T17:33:05.163Z,4.20
2018-06-18T17:35:34.931Z,4.23
2018-06-18T17:38:04.448Z,3.73
2018-06-18T17:40:33.912Z,5.27
2018-06-18T17:43:03.159Z,4.60
2018-06-18T17:45:32.335Z,4.10
2018-06-18T17:48:02.136Z,4.23
2018-06-18T17:50:32.302Z,3.77
2018-06-18T17:53:01.915Z,4.50
2018-06-18T17:55:31.893Z,3.87
2018-06-18T17:58:01.735Z,4.70
2018-06-18T18:00:32.391Z,4.40
2018-06-18T18:03:02.415Z,4.10
2018-06-18T18:05:32.427Z,3.93
2018-06-18T18:08:02.279Z,4.30
2018-06-18T18:10:32.325Z,3.93
2018-06-18T18:13:01.640Z,5.10
2018-06-18T18:15:31.211Z,5.23
2018-06-18T18:18:00.852Z,4.20
2018-06-18T18:20:29.962Z,4.73
2018-06-18T18:22:59.715Z,4.63
2018-06-18T18:25:28.882Z,4.83
2018-06-18T18:27:58.698Z,5.40
2018-06-18T18:30:27.790Z,4.73
2018-06-18T18:32:57.330Z,4.40
2018-06-18T18:35:26.442Z,4.93
2018-06-18T18:37:56.418Z,4.30
2018-06-18T18:40:26.235Z,4.30
2018-06-18T18:42:55.315Z,4.03
2018-06-18T18:45:24.471Z,4.60
2018-06-18T18:47:53.606Z,5.40
2018-06-18T18:50:23.959Z,4.97
2018-06-18T18:52:53.066Z,5.30
2018-06-18T18:55:42.697Z,4.50
2018-06-18T18:58:28.828Z,4.97
2018-06-18T19:00:58.670Z,6.20
2018-06-18T19:03:30.275Z,7.03
2018-06-18T19:05:59.894Z,8.00
2018-06-18T19:08:32.201Z,7.37
2018-06-18T19:11:03.702Z,4.50
2018-06-18T19:13:36.583Z,4.90
2018-06-18T19:16:06.769Z,5.20
2018-06-18T19:18:37.498Z,5.73
2018-06-18T19:21:11.122Z,6.60
2018-06-18T19:23:40.262Z,5.30
2018-06-18T19:26:09.334Z,5.70
2018-06-18T19:28:38.731Z,5.27
2018-06-18T19:31:14.507Z,6.17
2018-06-18T19:34:23.567Z,5.10
2018-06-18T19:36:55.071Z,6.53
2018-06-18T19:39:32.241Z,5.80
2018-06-18T19:42:01.631Z,5.80
2018-06-18T19:44:30.779Z,6.50
2018-06-18T19:47:21.171Z,7.10
2018-06-18T19:49:50.327Z,7.97
2018-06-18T19:52:19.107Z,8.87
2018-06-18T19:54:52.391Z,9.30
2018-06-18T19:57:21.671Z,7.00
2018-06-18T19:59:50.791Z,8.67
2018-06-18T20:02:19.986Z,8.43
2018-06-18T20:04:49.287Z,16.47
2018-06-18T20:07:21.217Z,11.47
2018-06-18T20:09:50.287Z,10.13
2018-06-18T20:12:19.479Z,7.13
2018-06-18T20:14:48.547Z,6.00
2018-06-18T20:17:17.720Z,5.87
2018-06-18T20:19:46.959Z,5.20
2018-06-18T20:22:17.363Z,5.47
2018-06-18T20:24:48.447Z,7.17
2018-06-18T20:27:17.526Z,5.80
2018-06-18T20:29:46.635Z,6.23
2018-06-18T20:32:15.874Z,5.27
2018-06-18T20:34:45.695Z,5.90
2018-06-18T20:37:15.271Z,5.90
2018-06-18T20:39:45.806Z,5.63
2018-06-18T20:42:15.185Z,6.07
2018-06-18T20:44:43.794Z,6.23
2018-06-18T20:47:12.862Z,7.00
2018-06-18T20:49:41.638Z,9.33
2018-06-18T20:52:11.591Z,14.40
2018-06-18T20:54:40.874Z,6.33
2018-06-18T20:57:10.752Z,6.93
2018-06-18T20:59:39.852Z,8.40
2018-06-18T21:02:09.581Z,7.30
2018-06-18T21:04:39.538Z,6.53
2018-06-18T21:07:09.498Z,7.40
2018-06-18T21:09:39.324Z,6.50
2018-06-18T21:12:09.047Z,7.20
2018-06-18T21:14:38.066Z,6.60
2018-06-18T21:17:07.401Z,7.60
2018-06-18T21:19:36.848Z,7.30
2018-06-18T21:22:06.590Z,7.13
2018-06-18T21:24:35.453Z,6.60
2018-06-18T21:27:04.692Z,6.73
2018-06-18T21:29:33.771Z,7.10
2018-06-18T21:32:02.874Z,7.43
2018-06-18T21:34:33.451Z,7.63
2018-06-18T21:37:02.619Z,8.53
2018-06-18T21:39:31.342Z,7.43
2018-06-18T21:42:01.096Z,6.97
2018-06-18T21:44:47.475Z,6.90
2018-06-18T21:47:16.532Z,7.60
2018-06-18T21:49:46.125Z,6.83
2018-06-18T21:52:15.346Z,7.17
2018-06-18T21:54:45.162Z,7.20
2018-06-18T21:57:14.471Z,8.10
2018-06-18T21:59:43.618Z,7.60
2018-06-18T22:02:12.855Z,7.63
2018-06-18T22:04:42.127Z,8.77
2018-06-18T22:07:11.658Z,7.20
2018-06-18T22:09:40.939Z,7.40
2018-06-18T22:12:09.669Z,8.03
2018-06-18T22:14:38.736Z,7.93
2018-06-18T22:17:08.103Z,7.40
2018-06-18T22:19:37.686Z,6.90
2018-06-18T22:22:06.770Z,7.30
2018-06-18T22:24:36.405Z,7.97
2018-06-18T22:27:05.847Z,7.50
2018-06-18T22:29:34.906Z,8.50
2018-06-18T22:32:04.010Z,8.90
2018-06-18T22:34:33.128Z,9.47
2018-06-18T22:37:02.272Z,7.80
2018-06-18T22:39:31.399Z,8.20
2018-06-18T22:42:00.478Z,9.33
2018-06-18T22:44:29.581Z,9.77
2018-06-18T22:46:59.457Z,8.57
2018-06-18T22:49:29.091Z,8.50
2018-06-18T22:51:58.452Z,9.00
2018-06-18T22:54:27.650Z,8.10
2018-06-18T22:56:57.506Z,10.43
2018-06-18T22:59:26.617Z,7.80
2018-06-18T23:01:56.423Z,9.53
2018-06-18T23:04:25.652Z,9.83
2018-06-18T23:06:54.851Z,10.17
2018-06-18T23:09:24.374Z,10.83
2018-06-18T23:11:53.611Z,10.70
2018-06-18T23:14:24.754Z,9.87
2018-06-18T23:16:54.416Z,9.30
2018-06-18T23:19:24.034Z,9.97
2018-06-18T23:21:53.116Z,11.40
2018-06-18T23:24:22.227Z,10.23
2018-06-18T23:26:51.747Z,9.70
2018-06-18T23:29:21.610Z,9.47
2018-06-18T23:31:50.686Z,9.20
2018-06-18T23:34:19.841Z,11.03
2018-06-18T23:36:49.374Z,10.80
2018-06-18T23:39:18.445Z,12.57
2018-06-18T23:41:51.638Z,10.97
2018-06-18T23:44:20.761Z,11.00
2018-06-18T23:46:49.826Z,11.70
2018-06-18T23:49:19.159Z,11.40
2018-06-18T23:51:48.213Z,11.93
2018-06-18T23:54:17.285Z,12.97
2018-06-18T23:56:46.406Z,12.27
2018-06-18T23:59:15.454Z,12.80
